sensor_id;sensor_type;location;lat;lon;timestamp;pressure;altitude;pressure_sealevel;temperature;humidity
41202;BME280;26936;50.524;8.684;2023-09-18T00:02:04;98665.81;;;18.11;100.00
41202;BME280;26936;50.524;8.684;2023-09-18T00:04:29;98661.94;;;18.03;100.00
41202;BME280;26936;50.524;8.684;2023-09-18T00:06:54;98672.56;;;17.97;100.00
41202;BME280;26936;50.524;8.684;2023-09-18T00:09:20;98650.03;;;17.94;100.00
41202;BME280;26936;50.524;8.684;2023-09-18T00:11:45;98656.53;;;17.89;100.00
41202;BME280;26936;50.524;8.684;2023-09-18T00:14:10;98639.47;;;17.83;100.00
41202;BME280;26936;50.524;8.684;2023-09-18T00:16:36;98640.25;;;17.78;100.00
41202;BME280;26936;50.524;8.684;2023-09-18T00:19:01;98631.94;;;17.80;100.00
41202;BME280;26936;50.524;8.684;2023-09-18T00:21:28;98630.66;;;17.81;100.00
41202;BME280;26936;50.524;8.684;2023-09-18T00:23:56;98624.16;;;17.81;100.00
41202;BME280;26936;50.524;8.684;2023-09-18T00:26:23;98635.06;;;17.77;100.00
41202;BME280;26936;50.524;8.684;2023-09-18T00:28:48;98625.75;;;17.76;100.00
41202;BME280;26936;50.524;8.684;2023-09-18T00:31:13;98630.38;;;17.74;100.00
41202;BME280;26936;50.524;8.684;2023-09-18T00:33:38;98629.88;;;17.75;100.00
41202;BME280;26936;50.524;8.684;2023-09-18T00:36:04;98629.88;;;17.75;100.00
41202;BME280;26936;50.524;8.684;2023-09-18T00:38:29;98625.72;;;17.71;100.00
41202;BME280;26936;50.524;8.684;2023-09-18T00:40:54;98626.00;;;17.73;100.00
41202;BME280;26936;50.524;8.684;2023-09-18T00:43:20;98619.53;;;17.67;100.00
41202;BME280;26936;50.524;8.684;2023-09-18T00:45:47;98615.38;;;17.73;100.00
41202;BME280;26936;50.524;8.684;2023-09-18T00:48:15;98604.75;;;17.79;100.00
41202;BME280;26936;50.524;8.684;2023-09-18T00:50:41;98603.19;;;17.84;100.00
41202;BME280;26936;50.524;8.684;2023-09-18T00:53:10;98599.81;;;17.91;100.00
41202;BME280;26936;50.524;8.684;2023-09-18T00:55:37;98593.81;;;18.05;100.00
41202;BME280;26936;50.524;8.684;2023-09-18T00:58:04;98591.44;;;18.15;100.00
41202;BME280;26936;50.524;8.684;2023-09-18T01:00:30;98575.88;;;18.27;100.00
41202;BME280;26936;50.524;8.684;2023-09-18T01:02:55;98582.03;;;18.36;100.00
41202;BME280;26936;50.524;8.684;2023-09-18T01:05:20;98581.22;;;18.52;100.00
41202;BME280;26936;50.524;8.684;2023-09-18T01:07:46;98583.78;;;18.56;100.00
41202;BME280;26936;50.524;8.684;2023-09-18T01:10:11;98570.25;;;18.67;100.00
41202;BME280;26936;50.524;8.684;2023-09-18T01:12:53;98571.50;;;18.77;100.00
41202;BME280;26936;50.524;8.684;2023-09-18T01:15:35;98575.06;;;18.83;100.00
41202;BME280;26936;50.524;8.684;2023-09-18T01:18:02;98572.94;;;18.89;100.00
41202;BME280;26936;50.524;8.684;2023-09-18T01:20:28;98574.41;;;19.07;100.00
41202;BME280;26936;50.524;8.684;2023-09-18T01:22:53;98583.78;;;19.02;100.00
41202;BME280;26936;50.524;8.684;2023-09-18T01:25:19;98583.81;;;18.97;100.00
41202;BME280;26936;50.524;8.684;2023-09-18T01:27:44;98585.50;;;19.11;100.00
41202;BME280;26936;50.524;8.684;2023-09-18T01:30:10;98589.94;;;19.12;100.00
41202;BME280;26936;50.524;8.684;2023-09-18T01:32:36;98580.06;;;19.13;100.00
41202;BME280;26936;50.524;8.684;2023-09-18T01:35:02;98582.44;;;19.09;100.00
41202;BME280;26936;50.524;8.684;2023-09-18T01:37:31;98579.81;;;19.11;100.00
41202;BME280;26936;50.524;8.684;2023-09-18T01:39:57;98583.94;;;19.15;100.00
41202;BME280;26936;50.524;8.684;2023-09-18T01:42:24;98580.06;;;19.13;100.00
41202;BME280;26936;50.524;8.684;2023-09-18T01:44:50;98572.72;;;19.23;100.00
41202;BME280;26936;50.524;8.684;2023-09-18T01:47:18;98572.47;;;19.21;100.00
41202;BME280;26936;50.524;8.684;2023-09-18T01:49:43;98553.28;;;19.21;100.00
41202;BME280;26936;50.524;8.684;2023-09-18T01:52:09;98556.84;;;19.27;100.00
41202;BME280;26936;50.524;8.684;2023-09-18T01:54:35;98557.66;;;19.22;100.00
41202;BME280;26936;50.524;8.684;2023-09-18T01:57:01;98539.22;;;19.29;100.00
41202;BME280;26936;50.524;8.684;2023-09-18T01:59:27;98535.59;;;19.23;100.00
41202;BME280;26936;50.524;8.684;2023-09-18T02:01:53;98535.59;;;19.23;100.00
41202;BME280;26936;50.524;8.684;2023-09-18T02:04:19;98531.94;;;19.28;100.00
41202;BME280;26936;50.524;8.684;2023-09-18T02:06:46;98522.22;;;19.42;100.00
41202;BME280;26936;50.524;8.684;2023-09-18T02:09:13;98523.19;;;19.50;100.00
41202;BME280;26936;50.524;8.684;2023-09-18T02:11:40;98526.78;;;19.56;100.00
41202;BME280;26936;50.524;8.684;2023-09-18T02:14:07;98534.16;;;19.70;100.00
41202;BME280;26936;50.524;8.684;2023-09-18T02:16:33;98525.81;;;19.72;100.00
41202;BME280;26936;50.524;8.684;2023-09-18T02:18:59;98534.31;;;19.77;100.00
41202;BME280;26936;50.524;8.684;2023-09-18T02:21:24;98538.97;;;19.80;100.00
41202;BME280;26936;50.524;8.684;2023-09-18T02:23:51;98538.19;;;19.80;100.00
41202;BME280;26936;50.524;8.684;2023-09-18T02:26:17;98531.69;;;19.79;100.00
41202;BME280;26936;50.524;8.684;2023-09-18T02:28:43;98527.59;;;19.75;100.00
41202;BME280;26936;50.524;8.684;2023-09-18T02:31:08;98525.28;;;19.73;100.00
41202;BME280;26936;50.524;8.684;2023-09-18T02:33:33;98520.88;;;19.72;100.00
41202;BME280;26936;50.524;8.684;2023-09-18T02:35:59;98525.97;;;19.79;100.00
41202;BME280;26936;50.524;8.684;2023-09-18T02:38:24;98523.13;;;19.79;100.00
41202;BME280;26936;50.524;8.684;2023-09-18T02:40:50;98518.19;;;19.80;100.00
41202;BME280;26936;50.524;8.684;2023-09-18T02:43:15;98543.25;;;19.68;100.00
41202;BME280;26936;50.524;8.684;2023-09-18T02:45:40;98541.09;;;19.74;100.00
41202;BME280;26936;50.524;8.684;2023-09-18T02:48:05;98593.22;;;19.56;100.00
41202;BME280;26936;50.524;8.684;2023-09-18T02:50:31;98611.53;;;19.42;100.00
41202;BME280;26936;50.524;8.684;2023-09-18T02:52:56;98611.81;;;19.39;100.00
41202;BME280;26936;50.524;8.684;2023-09-18T02:55:21;98622.38;;;19.49;100.00
41202;BME280;26936;50.524;8.684;2023-09-18T02:57:46;98623.31;;;19.22;100.00
41202;BME280;26936;50.524;8.684;2023-09-18T03:00:12;98625.47;;;19.11;100.00
41202;BME280;26936;50.524;8.684;2023-09-18T03:02:38;98612.72;;;19.17;100.00
41202;BME280;26936;50.524;8.684;2023-09-18T03:05:03;98608.34;;;19.11;100.00
41202;BME280;26936;50.524;8.684;2023-09-18T03:07:29;98594.84;;;19.11;100.00
41202;BME280;26936;50.524;8.684;2023-09-18T03:09:55;98594.41;;;19.02;100.00
41202;BME280;26936;50.524;8.684;2023-09-18T03:12:20;98584.16;;;18.82;100.00
41202;BME280;26936;50.524;8.684;2023-09-18T03:14:47;98562.13;;;18.82;100.00
41202;BME280;26936;50.524;8.684;2023-09-18T03:17:12;98547.63;;;18.75;100.00
41202;BME280;26936;50.524;8.684;2023-09-18T03:19:38;98558.28;;;18.74;100.00
41202;BME280;26936;50.524;8.684;2023-09-18T03:22:03;98553.06;;;18.78;100.00
41202;BME280;26936;50.524;8.684;2023-09-18T03:24:28;98539.84;;;18.75;100.00
41202;BME280;26936;50.524;8.684;2023-09-18T03:26:53;98551.00;;;18.79;100.00
41202;BME280;26936;50.524;8.684;2023-09-18T03:29:19;98538.25;;;18.85;100.00
41202;BME280;26936;50.524;8.684;2023-09-18T03:31:44;98538.16;;;18.97;100.00
41202;BME280;26936;50.524;8.684;2023-09-18T03:34:09;98540.66;;;19.06;100.00
41202;BME280;26936;50.524;8.684;2023-09-18T03:36:35;98538.03;;;19.13;100.00
41202;BME280;26936;50.524;8.684;2023-09-18T03:39:01;98511.03;;;19.14;100.00
41202;BME280;26936;50.524;8.684;2023-09-18T03:41:27;98490.50;;;19.16;100.00
41202;BME280;26936;50.524;8.684;2023-09-18T03:43:52;98501.22;;;19.10;100.00
41202;BME280;26936;50.524;8.684;2023-09-18T03:46:17;98494.53;;;19.02;100.00
41202;BME280;26936;50.524;8.684;2023-09-18T03:48:43;98484.44;;;19.01;100.00
41202;BME280;26936;50.524;8.684;2023-09-18T03:51:08;98475.03;;;19.06;100.00
41202;BME280;26936;50.524;8.684;2023-09-18T03:53:34;98474.03;;;19.03;100.00
41202;BME280;26936;50.524;8.684;2023-09-18T03:55:59;98489.66;;;18.97;100.00
41202;BME280;26936;50.524;8.684;2023-09-18T03:58:25;98490.16;;;19.01;100.00
41202;BME280;26936;50.524;8.684;2023-09-18T04:00:50;98490.56;;;19.10;100.00
41202;BME280;26936;50.524;8.684;2023-09-18T04:03:16;98476.38;;;18.99;100.00
41202;BME280;26936;50.524;8.684;2023-09-18T04:05:42;98471.22;;;18.98;100.00
41202;BME280;26936;50.524;8.684;2023-09-18T04:08:07;98469.91;;;18.99;100.00
41202;BME280;26936;50.524;8.684;2023-09-18T04:10:32;98476.09;;;19.03;100.00
41202;BME280;26936;50.524;8.684;2023-09-18T04:12:58;98482.59;;;19.03;100.00
41202;BME280;26936;50.524;8.684;2023-09-18T04:15:23;98470.16;;;19.01;100.00
41202;BME280;26936;50.524;8.684;2023-09-18T04:17:48;98479.97;;;19.05;100.00
41202;BME280;26936;50.524;8.684;2023-09-18T04:20:14;98471.22;;;18.98;100.00
41202;BME280;26936;50.524;8.684;2023-09-18T04:22:47;98485.94;;;19.07;100.00
41202;BME280;26936;50.524;8.684;2023-09-18T04:25:16;98475.41;;;18.91;100.00
41202;BME280;26936;50.524;8.684;2023-09-18T04:27:41;98477.81;;;18.87;100.00
41202;BME280;26936;50.524;8.684;2023-09-18T04:30:07;98463.28;;;18.85;100.00
41202;BME280;26936;50.524;8.684;2023-09-18T04:32:37;98468.22;;;18.84;100.00
41202;BME280;26936;50.524;8.684;2023-09-18T04:35:03;98473.09;;;18.89;100.00
41202;BME280;26936;50.524;8.684;2023-09-18T04:37:30;98479.56;;;18.96;100.00
41202;BME280;26936;50.524;8.684;2023-09-18T04:39:57;98476.00;;;18.84;100.00
41202;BME280;26936;50.524;8.684;2023-09-18T04:42:22;98474.22;;;18.81;100.00
41202;BME280;26936;50.524;8.684;2023-09-18T04:44:47;98471.88;;;18.79;100.00
41202;BME280;26936;50.524;8.684;2023-09-18T04:47:13;98456.31;;;18.80;100.00
41202;BME280;26936;50.524;8.684;2023-09-18T04:49:38;98467.91;;;18.88;100.00
41202;BME280;26936;50.524;8.684;2023-09-18T04:52:03;98468.53;;;18.81;100.00
41202;BME280;26936;50.524;8.684;2023-09-18T04:54:30;98470.25;;;18.89;100.00
41202;BME280;26936;50.524;8.684;2023-09-18T04:56:56;98461.22;;;18.85;100.00
41202;BME280;26936;50.524;8.684;2023-09-18T04:59:21;98454.19;;;18.86;100.00
41202;BME280;26936;50.524;8.684;2023-09-18T05:01:46;98454.31;;;19.05;100.00
41202;BME280;26936;50.524;8.684;2023-09-18T05:04:11;98450.13;;;19.06;100.00
41202;BME280;26936;50.524;8.684;2023-09-18T05:06:37;98448.38;;;18.98;100.00
41202;BME280;26936;50.524;8.684;2023-09-18T05:09:04;98440.06;;;19.00;100.00
41202;BME280;26936;50.524;8.684;2023-09-18T05:11:30;98436.75;;;18.96;100.00
41202;BME280;26936;50.524;8.684;2023-09-18T05:13:56;98411.00;;;19.01;100.00
41202;BME280;26936;50.524;8.684;2023-09-18T05:16:21;98401.91;;;19.03;100.00
41202;BME280;26936;50.524;8.684;2023-09-18T05:18:47;98398.84;;;19.01;100.00
41202;BME280;26936;50.524;8.684;2023-09-18T05:21:12;98400.19;;;18.94;100.00
41202;BME280;26936;50.524;8.684;2023-09-18T05:23:37;98396.19;;;19.03;100.00
41202;BME280;26936;50.524;8.684;2023-09-18T05:26:02;98377.53;;;19.02;100.00
41202;BME280;26936;50.524;8.684;2023-09-18T05:28:28;98369.16;;;19.09;100.00
41202;BME280;26936;50.524;8.684;2023-09-18T05:30:53;98378.97;;;19.14;100.00
41202;BME280;26936;50.524;8.684;2023-09-18T05:33:18;98406.75;;;19.13;100.00
41202;BME280;26936;50.524;8.684;2023-09-18T05:35:45;98424.16;;;19.10;100.00
41202;BME280;26936;50.524;8.684;2023-09-18T05:38:11;98429.81;;;19.15;100.00
41202;BME280;26936;50.524;8.684;2023-09-18T05:40:38;98434.22;;;19.16;100.00
41202;BME280;26936;50.524;8.684;2023-09-18T05:43:03;98443.25;;;19.20;100.00
41202;BME280;26936;50.524;8.684;2023-09-18T05:45:29;98454.16;;;19.22;100.00
41202;BME280;26936;50.524;8.684;2023-09-18T05:47:56;98451.75;;;19.26;100.00
41202;BME280;26936;50.524;8.684;2023-09-18T05:50:32;98443.44;;;19.28;100.00
41202;BME280;26936;50.524;8.684;2023-09-18T05:52:58;98455.53;;;19.39;100.00
41202;BME280;26936;50.524;8.684;2023-09-18T05:55:30;98465.19;;;19.36;100.00
41202;BME280;26936;50.524;8.684;2023-09-18T05:57:55;98466.19;;;19.39;100.00
41202;BME280;26936;50.524;8.684;2023-09-18T06:00:20;98471.56;;;19.48;100.00
41202;BME280;26936;50.524;8.684;2023-09-18T06:02:47;98479.63;;;19.44;100.00
41202;BME280;26936;50.524;8.684;2023-09-18T06:05:12;98484.22;;;19.52;100.00
41202;BME280;26936;50.524;8.684;2023-09-18T06:07:37;98481.00;;;19.61;100.00
41202;BME280;26936;50.524;8.684;2023-09-18T06:10:03;98475.75;;;19.65;100.00
41202;BME280;26936;50.524;8.684;2023-09-18T06:12:29;98470.41;;;19.80;100.00
41202;BME280;26936;50.524;8.684;2023-09-18T06:14:55;98476.34;;;19.82;100.00
41202;BME280;26936;50.524;8.684;2023-09-18T06:17:20;98477.91;;;19.83;100.00
41202;BME280;26936;50.524;8.684;2023-09-18T06:19:46;98485.16;;;19.84;100.00
41202;BME280;26936;50.524;8.684;2023-09-18T06:22:12;98484.06;;;19.87;100.00
41202;BME280;26936;50.524;8.684;2023-09-18T06:24:37;98483.00;;;19.90;100.00
41202;BME280;26936;50.524;8.684;2023-09-18T06:27:03;98483.97;;;19.98;100.00
41202;BME280;26936;50.524;8.684;2023-09-18T06:29:32;98483.16;;;19.98;100.00
41202;BME280;26936;50.524;8.684;2023-09-18T06:31:58;98479.53;;;19.97;100.00
41202;BME280;26936;50.524;8.684;2023-09-18T06:34:23;98474.41;;;19.90;100.00
41202;BME280;26936;50.524;8.684;2023-09-18T06:36:48;98474.41;;;19.90;100.00
41202;BME280;26936;50.524;8.684;2023-09-18T06:39:14;98475.03;;;19.83;100.00
41202;BME280;26936;50.524;8.684;2023-09-18T06:41:40;98470.84;;;19.84;100.00
41202;BME280;26936;50.524;8.684;2023-09-18T06:44:05;98471.28;;;19.70;100.00
41202;BME280;26936;50.524;8.684;2023-09-18T06:46:31;98467.66;;;19.69;100.00
41202;BME280;26936;50.524;8.684;2023-09-18T06:48:56;98471.25;;;19.75;100.00
41202;BME280;26936;50.524;8.684;2023-09-18T06:51:23;98464.38;;;19.84;100.00
41202;BME280;26936;50.524;8.684;2023-09-18T06:53:48;98464.44;;;19.78;100.00
41202;BME280;26936;50.524;8.684;2023-09-18T06:56:13;98466.47;;;19.83;100.00
41202;BME280;26936;50.524;8.684;2023-09-18T06:58:39;98465.53;;;19.75;100.00
41202;BME280;26936;50.524;8.684;2023-09-18T07:01:04;98459.03;;;19.75;100.00
41202;BME280;26936;50.524;8.684;2023-09-18T07:03:32;98473.59;;;19.71;100.00
41202;BME280;26936;50.524;8.684;2023-09-18T07:05:59;98473.81;;;19.79;100.00
41202;BME280;26936;50.524;8.684;2023-09-18T07:08:25;98476.13;;;19.80;100.00
41202;BME280;26936;50.524;8.684;2023-09-18T07:10:50;98488.00;;;19.84;100.00
41202;BME280;26936;50.524;8.684;2023-09-18T07:13:16;98491.94;;;19.81;100.00
41202;BME280;26936;50.524;8.684;2023-09-18T07:15:41;98493.41;;;19.88;100.00
41202;BME280;26936;50.524;8.684;2023-09-18T07:18:06;98501.22;;;19.87;100.00
41202;BME280;26936;50.524;8.684;2023-09-18T07:20:31;98503.84;;;19.85;100.00
41202;BME280;26936;50.524;8.684;2023-09-18T07:22:57;98490.03;;;19.89;100.00
41202;BME280;26936;50.524;8.684;2023-09-18T07:25:22;98495.50;;;19.87;100.00
41202;BME280;26936;50.524;8.684;2023-09-18T07:27:48;98499.91;;;19.88;100.00
41202;BME280;26936;50.524;8.684;2023-09-18T07:30:14;98508.28;;;20.05;100.00
41202;BME280;26936;50.524;8.684;2023-09-18T07:32:44;98501.94;;;20.12;100.00
41202;BME280;26936;50.524;8.684;2023-09-18T07:35:11;98500.53;;;20.24;100.00
41202;BME280;26936;50.524;8.684;2023-09-18T07:37:38;98499.94;;;20.31;100.00
41202;BME280;26936;50.524;8.684;2023-09-18T07:40:05;98509.03;;;20.30;100.00
41202;BME280;26936;50.524;8.684;2023-09-18T07:42:30;98525.72;;;20.26;100.00
41202;BME280;26936;50.524;8.684;2023-09-18T07:44:55;98527.50;;;20.29;100.00
41202;BME280;26936;50.524;8.684;2023-09-18T07:47:21;98530.59;;;20.49;100.00
41202;BME280;26936;50.524;8.684;2023-09-18T07:49:47;98527.44;;;20.53;100.00
41202;BME280;26936;50.524;8.684;2023-09-18T07:52:13;98525.50;;;20.42;100.00
41202;BME280;26936;50.524;8.684;2023-09-18T07:54:38;98536.47;;;20.38;100.00
41202;BME280;26936;50.524;8.684;2023-09-18T07:57:03;98535.81;;;20.51;100.00
41202;BME280;26936;50.524;8.684;2023-09-18T07:59:29;98535.47;;;20.54;100.00
41202;BME280;26936;50.524;8.684;2023-09-18T08:01:55;98518.47;;;20.62;100.00
41202;BME280;26936;50.524;8.684;2023-09-18T08:04:20;98522.09;;;20.81;100.00
41202;BME280;26936;50.524;8.684;2023-09-18T08:06:46;98533.00;;;21.01;100.00
41202;BME280;26936;50.524;8.684;2023-09-18T08:09:12;98536.69;;;20.96;100.00
41202;BME280;26936;50.524;8.684;2023-09-18T08:11:41;98536.84;;;21.03;100.00
41202;BME280;26936;50.524;8.684;2023-09-18T08:14:08;98550.00;;;21.12;100.00
41202;BME280;26936;50.524;8.684;2023-09-18T08:16:33;98544.44;;;21.32;100.00
41202;BME280;26936;50.524;8.684;2023-09-18T08:19:01;98547.63;;;21.29;100.00
41202;BME280;26936;50.524;8.684;2023-09-18T08:21:26;98558.63;;;21.25;100.00
41202;BME280;26936;50.524;8.684;2023-09-18T08:23:54;98545.38;;;21.53;100.00
41202;BME280;26936;50.524;8.684;2023-09-18T08:26:19;98558.03;;;22.16;97.60
41202;BME280;26936;50.524;8.684;2023-09-18T08:28:44;98567.50;;;22.11;96.04
41202;BME280;26936;50.524;8.684;2023-09-18T08:31:10;98571.38;;;22.39;96.12
41202;BME280;26936;50.524;8.684;2023-09-18T08:33:35;98569.06;;;22.12;92.15
41202;BME280;26936;50.524;8.684;2023-09-18T08:36:01;98571.47;;;22.21;94.24
41202;BME280;26936;50.524;8.684;2023-09-18T08:38:26;98562.47;;;22.17;91.48
41202;BME280;26936;50.524;8.684;2023-09-18T08:40:54;98569.84;;;22.25;88.52
41202;BME280;26936;50.524;8.684;2023-09-18T08:43:19;98562.88;;;22.34;87.22
41202;BME280;26936;50.524;8.684;2023-09-18T08:45:53;98562.75;;;22.39;86.66
41202;BME280;26936;50.524;8.684;2023-09-18T08:48:20;98576.00;;;22.42;84.87
41202;BME280;26936;50.524;8.684;2023-09-18T08:50:47;98573.91;;;22.43;85.90
41202;BME280;26936;50.524;8.684;2023-09-18T08:53:12;98583.63;;;22.40;85.51
41202;BME280;26936;50.524;8.684;2023-09-18T08:55:37;98576.78;;;22.43;85.12
41202;BME280;26936;50.524;8.684;2023-09-18T08:58:03;98582.06;;;22.39;85.45
41202;BME280;26936;50.524;8.684;2023-09-18T09:00:28;98573.59;;;22.59;84.59
41202;BME280;26936;50.524;8.684;2023-09-18T09:02:54;98578.84;;;22.68;84.50
41202;BME280;26936;50.524;8.684;2023-09-18T09:05:21;98574.34;;;22.47;84.74
41202;BME280;26936;50.524;8.684;2023-09-18T09:07:46;98576.25;;;22.18;87.05
41202;BME280;26936;50.524;8.684;2023-09-18T09:10:12;98578.00;;;21.95;87.91
41202;BME280;26936;50.524;8.684;2023-09-18T09:12:53;98589.47;;;21.95;88.70
41202;BME280;26936;50.524;8.684;2023-09-18T09:15:20;98583.03;;;21.76;89.03
41202;BME280;26936;50.524;8.684;2023-09-18T09:17:46;98583.09;;;21.71;89.23
41202;BME280;26936;50.524;8.684;2023-09-18T09:20:13;98566.47;;;21.69;89.59
41202;BME280;26936;50.524;8.684;2023-09-18T09:22:39;98570.31;;;21.72;89.91
41202;BME280;26936;50.524;8.684;2023-09-18T09:27:46;98575.72;;;21.75;89.72
41202;BME280;26936;50.524;8.684;2023-09-18T09:30:18;98570.00;;;21.75;89.06
41202;BME280;26936;50.524;8.684;2023-09-18T09:32:47;98563.00;;;21.58;89.16
41202;BME280;26936;50.524;8.684;2023-09-18T09:35:21;98577.97;;;21.50;89.92
41202;BME280;26936;50.524;8.684;2023-09-18T09:37:49;98568.59;;;21.37;90.81
41202;BME280;26936;50.524;8.684;2023-09-18T09:40:15;98580.59;;;21.35;90.32
41202;BME280;26936;50.524;8.684;2023-09-18T09:42:41;98577.72;;;21.35;91.07
41202;BME280;26936;50.524;8.684;2023-09-18T09:45:13;98579.72;;;21.40;90.04
41202;BME280;26936;50.524;8.684;2023-09-18T09:47:39;98581.34;;;21.36;89.95
41202;BME280;26936;50.524;8.684;2023-09-18T09:50:15;98584.75;;;21.34;90.09
41202;BME280;26936;50.524;8.684;2023-09-18T09:52:47;98585.91;;;21.44;90.59
41202;BME280;26936;50.524;8.684;2023-09-18T09:55:32;98592.97;;;21.43;90.28
41202;BME280;26936;50.524;8.684;2023-09-18T09:58:04;98608.22;;;21.33;91.41
41202;BME280;26936;50.524;8.684;2023-09-18T10:00:39;98616.44;;;21.23;90.80
41202;BME280;26936;50.524;8.684;2023-09-18T10:03:10;98623.50;;;21.22;92.03
41202;BME280;26936;50.524;8.684;2023-09-18T10:05:38;98622.78;;;21.16;91.21
41202;BME280;26936;50.524;8.684;2023-09-18T10:08:07;98621.03;;;21.13;91.83
41202;BME280;26936;50.524;8.684;2023-09-18T10:10:38;98619.50;;;21.12;91.94
41202;BME280;26936;50.524;8.684;2023-09-18T10:13:10;98623.34;;;21.15;91.62
41202;BME280;26936;50.524;8.684;2023-09-18T10:15:38;98624.34;;;21.17;92.33
41202;BME280;26936;50.524;8.684;2023-09-18T10:18:05;98626.31;;;21.09;91.65
41202;BME280;26936;50.524;8.684;2023-09-18T10:20:39;98611.22;;;21.09;91.97
41202;BME280;26936;50.524;8.684;2023-09-18T10:25:59;98591.19;;;21.40;90.28
41202;BME280;26936;50.524;8.684;2023-09-18T10:28:28;98595.72;;;21.49;89.54
41202;BME280;26936;50.524;8.684;2023-09-18T10:30:56;98589.31;;;21.43;90.01
41202;BME280;26936;50.524;8.684;2023-09-18T10:33:23;98602.31;;;21.44;89.56
41202;BME280;26936;50.524;8.684;2023-09-18T10:35:48;98607.19;;;21.49;89.62
41202;BME280;26936;50.524;8.684;2023-09-18T10:38:15;98626.59;;;21.56;89.56
41202;BME280;26936;50.524;8.684;2023-09-18T10:40:43;98633.63;;;21.42;90.62
41202;BME280;26936;50.524;8.684;2023-09-18T10:43:10;98635.56;;;21.34;91.55
41202;BME280;26936;50.524;8.684;2023-09-18T10:45:36;98602.78;;;21.80;88.98
41202;BME280;26936;50.524;8.684;2023-09-18T10:48:03;98602.84;;;22.19;87.59
41202;BME280;26936;50.524;8.684;2023-09-18T10:50:29;98593.84;;;21.96;86.04
41202;BME280;26936;50.524;8.684;2023-09-18T10:52:57;98614.16;;;22.11;85.99
41202;BME280;26936;50.524;8.684;2023-09-18T10:55:23;98612.63;;;22.10;86.76
41202;BME280;26936;50.524;8.684;2023-09-18T10:57:54;98606.56;;;21.88;85.85
41202;BME280;26936;50.524;8.684;2023-09-18T11:00:21;98596.53;;;22.07;85.85
41202;BME280;26936;50.524;8.684;2023-09-18T11:02:51;98589.00;;;22.17;86.76
41202;BME280;26936;50.524;8.684;2023-09-18T11:05:29;98594.97;;;22.19;85.60
41202;BME280;26936;50.524;8.684;2023-09-18T11:08:27;98603.56;;;22.06;85.55
41202;BME280;26936;50.524;8.684;2023-09-18T11:11:06;98602.69;;;22.11;86.87
41202;BME280;26936;50.524;8.684;2023-09-18T11:13:41;98590.13;;;22.14;85.52
41202;BME280;26936;50.524;8.684;2023-09-18T11:19:38;98589.00;;;22.17;83.76
41202;BME280;26936;50.524;8.684;2023-09-18T11:21:39;98601.50;;;22.07;84.05
41202;BME280;26936;50.524;8.684;2023-09-18T11:24:15;98602.69;;;22.11;85.80
41202;BME280;26936;50.524;8.684;2023-09-18T11:26:42;98612.47;;;21.90;85.20
41202;BME280;26936;50.524;8.684;2023-09-18T11:29:10;98614.72;;;21.97;86.60
41202;BME280;26936;50.524;8.684;2023-09-18T11:34:35;98623.41;;;21.91;86.05
41202;BME280;26936;50.524;8.684;2023-09-18T11:37:02;98622.97;;;21.87;86.61
41202;BME280;26936;50.524;8.684;2023-09-18T11:39:44;98627.47;;;21.83;86.62
41202;BME280;26936;50.524;8.684;2023-09-18T11:42:17;98628.97;;;21.71;86.70
41202;BME280;26936;50.524;8.684;2023-09-18T11:44:43;98620.69;;;21.67;87.41
41202;BME280;26936;50.524;8.684;2023-09-18T11:47:13;98614.94;;;21.67;85.79
41202;BME280;26936;50.524;8.684;2023-09-18T11:49:54;98633.03;;;21.75;87.51
41202;BME280;26936;50.524;8.684;2023-09-18T11:52:22;98618.03;;;21.69;88.01
41202;BME280;26936;50.524;8.684;2023-09-18T11:54:48;98633.81;;;21.76;88.11
41202;BME280;26936;50.524;8.684;2023-09-18T11:57:14;98634.91;;;21.73;88.18
41202;BME280;26936;50.524;8.684;2023-09-18T11:59:43;98634.28;;;21.48;88.63
41202;BME280;26936;50.524;8.684;2023-09-18T12:02:31;98625.16;;;21.49;88.83
41202;BME280;26936;50.524;8.684;2023-09-18T12:05:25;98615.56;;;21.47;88.55
41202;BME280;26936;50.524;8.684;2023-09-18T12:07:51;98609.72;;;21.52;88.73
41202;BME280;26936;50.524;8.684;2023-09-18T12:10:19;98609.09;;;21.60;89.01
41202;BME280;26936;50.524;8.684;2023-09-18T12:12:46;98613.25;;;21.77;88.15
41202;BME280;26936;50.524;8.684;2023-09-18T12:15:13;98610.97;;;22.02;86.60
41202;BME280;26936;50.524;8.684;2023-09-18T12:17:40;98619.59;;;22.15;85.65
41202;BME280;26936;50.524;8.684;2023-09-18T12:20:05;98603.19;;;22.54;84.17
41202;BME280;26936;50.524;8.684;2023-09-18T12:22:31;98604.03;;;22.36;83.22
41202;BME280;26936;50.524;8.684;2023-09-18T12:25:12;98615.19;;;22.27;82.33
41202;BME280;26936;50.524;8.684;2023-09-18T12:27:43;98599.72;;;22.43;81.92
41202;BME280;26936;50.524;8.684;2023-09-18T12:30:10;98596.97;;;22.50;82.65
41202;BME280;26936;50.524;8.684;2023-09-18T12:32:39;98600.06;;;22.39;82.19
41202;BME280;26936;50.524;8.684;2023-09-18T12:35:07;98607.22;;;22.72;81.65
41202;BME280;26936;50.524;8.684;2023-09-18T12:37:35;98600.22;;;22.94;80.11
41202;BME280;26936;50.524;8.684;2023-09-18T12:40:00;98590.78;;;23.40;77.47
41202;BME280;26936;50.524;8.684;2023-09-18T12:42:26;98595.53;;;23.17;78.13
41202;BME280;26936;50.524;8.684;2023-09-18T12:44:52;98594.59;;;23.55;75.20
41202;BME280;26936;50.524;8.684;2023-09-18T12:47:18;98592.63;;;23.71;73.99
41202;BME280;26936;50.524;8.684;2023-09-18T12:49:43;98590.84;;;24.09;74.02
41202;BME280;26936;50.524;8.684;2023-09-18T12:52:08;98581.94;;;24.56;73.40
41202;BME280;26936;50.524;8.684;2023-09-18T12:54:39;98591.56;;;25.01;68.93
41202;BME280;26936;50.524;8.684;2023-09-18T12:57:06;98593.16;;;24.39;69.73
41202;BME280;26936;50.524;8.684;2023-09-18T12:59:32;98597.97;;;23.67;71.54
41202;BME280;26936;50.524;8.684;2023-09-18T13:01:59;98609.25;;;23.65;71.84
41202;BME280;26936;50.524;8.684;2023-09-18T13:04:24;98604.69;;;23.69;72.17